createdAt,value
2023-04-13T00:00:44.385Z,11.00
2023-04-13T00:03:12.826Z,11.00
2023-04-13T00:05:40.441Z,11.00
2023-04-13T00:08:08.059Z,11.00
2023-04-13T00:10:36.699Z,11.00
2023-04-13T00:13:05.408Z,10.90
2023-04-13T00:15:34.970Z,10.90
2023-04-13T00:18:02.105Z,10.90
2023-04-13T00:20:30.305Z,10.90
2023-04-13T00:22:57.288Z,10.90
2023-04-13T00:25:24.350Z,10.90
2023-04-13T00:27:53.187Z,10.90
2023-04-13T00:30:21.614Z,10.90
2023-04-13T00:32:49.352Z,10.90
2023-04-13T00:35:25.049Z,10.90
2023-04-13T00:37:53.150Z,10.90
2023-04-13T00:40:20.467Z,10.90
2023-04-13T00:42:49.588Z,10.90
2023-04-13T00:45:18.348Z,10.80
2023-04-13T00:47:47.686Z,10.80
2023-04-13T00:50:17.384Z,10.80
2023-04-13T00:52:46.194Z,10.70
2023-04-13T00:55:14.840Z,10.70
2023-04-13T00:57:42.232Z,10.70
2023-04-13T01:00:09.983Z,10.70
2023-04-13T01:02:42.442Z,10.70
2023-04-13T01:05:12.863Z,10.70
2023-04-13T01:07:47.564Z,10.70
2023-04-13T01:10:39.275Z,10.70
2023-04-13T01:13:06.278Z,10.70
2023-04-13T01:15:38.190Z,10.60
2023-04-13T01:18:09.037Z,10.60
2023-04-13T01:20:40.787Z,10.50
2023-04-13T01:23:25.546Z,10.50
2023-04-13T01:25:59.661Z,10.40
2023-04-13T01:28:28.077Z,10.30
2023-04-13T01:30:57.554Z,10.20
2023-04-13T01:33:25.690Z,10.20
2023-04-13T01:35:58.834Z,10.10
2023-04-13T01:38:26.025Z,10.10
2023-04-13T01:40:53.126Z,10.00
2023-04-13T01:43:21.081Z,10.00
2023-04-13T01:46:15.763Z,9.90
2023-04-13T01:48:50.199Z,9.90
2023-04-13T01:51:19.893Z,9.90
2023-04-13T01:54:13.858Z,9.90
2023-04-13T01:56:42.078Z,9.80
2023-04-13T01:59:10.469Z,9.80
2023-04-13T02:01:43.884Z,9.80
2023-04-13T02:04:11.358Z,9.80
2023-04-13T02:06:38.631Z,9.80
2023-04-13T02:09:07.052Z,9.80
2023-04-13T02:11:35.452Z,9.80
2023-04-13T02:14:02.584Z,9.80
2023-04-13T02:16:29.783Z,9.80
2023-04-13T02:19:00.469Z,9.80
2023-04-13T02:21:28.941Z,9.80
2023-04-13T02:23:56.047Z,9.80
2023-04-13T02:26:23.448Z,9.80
2023-04-13T02:28:51.684Z,9.80
2023-04-13T02:31:20.601Z,9.80
2023-04-13T02:33:47.861Z,9.70
2023-04-13T02:36:17.618Z,9.70
2023-04-13T02:38:45.375Z,9.70
2023-04-13T02:41:12.685Z,9.60
2023-04-13T02:43:39.721Z,9.60
2023-04-13T02:46:07.010Z,9.60
2023-04-13T02:48:34.062Z,9.60
2023-04-13T02:51:01.092Z,9.60
2023-04-13T02:53:28.323Z,9.60
2023-04-13T02:55:55.657Z,9.60
2023-04-13T02:58:24.053Z,9.60
2023-04-13T03:00:51.311Z,9.60
2023-04-13T03:03:19.275Z,9.70
2023-04-13T03:05:46.389Z,9.70
2023-04-13T03:08:14.532Z,9.70
2023-04-13T03:10:41.509Z,9.70
2023-04-13T03:13:08.502Z,9.70
2023-04-13T03:15:35.725Z,9.60
2023-04-13T03:18:04.079Z,9.60
2023-04-13T03:20:31.218Z,9.60
2023-04-13T03:22:58.888Z,9.50
2023-04-13T03:25:25.942Z,9.50
2023-04-13T03:27:53.059Z,9.50
2023-04-13T03:30:20.220Z,9.50
2023-04-13T03:32:47.240Z,9.50
2023-04-13T03:35:14.529Z,9.50
2023-04-13T03:37:44.947Z,9.50
2023-04-13T03:40:12.374Z,9.50
2023-04-13T03:42:39.605Z,9.40
2023-04-13T03:45:07.226Z,9.40
2023-04-13T03:47:34.397Z,9.40
2023-04-13T03:50:01.521Z,9.40
2023-04-13T03:52:28.535Z,9.40
2023-04-13T03:54:55.617Z,9.40
2023-04-13T03:57:22.942Z,9.40
2023-04-13T03:59:49.994Z,9.40
2023-04-13T04:02:17.241Z,9.40
2023-04-13T04:04:44.463Z,9.40
2023-04-13T04:07:11.647Z,9.30
2023-04-13T04:09:39.322Z,9.30
2023-04-13T04:12:06.574Z,9.30
2023-04-13T04:14:34.000Z,9.30
2023-04-13T04:17:01.449Z,9.30
2023-04-13T04:19:28.683Z,9.30
2023-04-13T04:21:58.037Z,9.30
2023-04-13T04:24:27.802Z,9.40
2023-04-13T04:26:55.832Z,9.40
2023-04-13T04:29:22.891Z,9.40
2023-04-13T04:31:53.949Z,9.40
2023-04-13T04:34:21.114Z,9.40
2023-04-13T04:36:52.113Z,9.50
2023-04-13T04:39:22.770Z,9.50
2023-04-13T04:42:04.235Z,9.50
2023-04-13T04:44:31.571Z,9.50
2023-04-13T04:46:59.726Z,9.50
2023-04-13T04:49:28.272Z,9.60
2023-04-13T04:51:56.089Z,9.60
2023-04-13T04:54:24.267Z,9.60
2023-04-13T04:56:51.831Z,9.60
2023-04-13T04:59:19.872Z,9.70
2023-04-13T05:01:47.366Z,9.70
2023-04-13T05:04:14.472Z,9.70
2023-04-13T05:06:41.783Z,9.70
2023-04-13T05:09:11.846Z,9.70
2023-04-13T05:11:39.344Z,9.70
2023-04-13T05:14:06.421Z,9.80
2023-04-13T05:16:34.649Z,9.80
2023-04-13T05:19:02.483Z,9.80
2023-04-13T05:21:29.587Z,9.80
2023-04-13T05:23:57.089Z,9.80
2023-04-13T05:26:25.556Z,9.80
2023-04-13T05:28:52.857Z,9.80
2023-04-13T05:31:20.748Z,9.80
2023-04-13T05:33:48.197Z,9.80
2023-04-13T05:36:15.245Z,9.80
2023-04-13T05:38:43.063Z,9.80
2023-04-13T05:41:10.579Z,9.80
2023-04-13T05:43:37.651Z,9.80
2023-04-13T05:46:04.872Z,9.80
2023-04-13T05:48:34.236Z,9.80
2023-04-13T05:51:01.853Z,9.90
2023-04-13T05:53:28.858Z,9.90
2023-04-13T05:55:56.012Z,9.90
2023-04-13T05:58:23.177Z,9.90
2023-04-13T06:00:50.842Z,10.00
2023-04-13T06:03:18.096Z,10.00
2023-04-13T06:05:46.105Z,10.10
2023-04-13T06:08:13.691Z,10.10
2023-04-13T06:10:41.333Z,10.10
2023-04-13T06:13:08.426Z,10.20
2023-04-13T06:15:38.866Z,10.20
2023-04-13T06:18:06.109Z,10.20
2023-04-13T06:20:34.127Z,10.30
2023-04-13T06:23:01.104Z,10.30
2023-04-13T06:25:28.210Z,10.40
2023-04-13T06:27:55.335Z,10.40
2023-04-13T06:30:22.479Z,10.40
2023-04-13T06:32:49.571Z,10.50
2023-04-13T06:35:17.624Z,10.50
2023-04-13T06:37:44.695Z,10.50
2023-04-13T06:40:15.333Z,10.50
2023-04-13T06:42:43.804Z,10.50
2023-04-13T06:45:12.103Z,10.60
2023-04-13T06:47:42.839Z,10.60
2023-04-13T06:50:13.600Z,10.50
2023-04-13T06:52:44.288Z,10.50
2023-04-13T06:55:11.267Z,10.50
2023-04-13T06:57:38.654Z,10.50
2023-04-13T07:00:25.908Z,10.50
2023-04-13T07:02:58.823Z,10.50
2023-04-13T07:05:26.195Z,10.50
2023-04-13T07:07:53.242Z,10.50
2023-04-13T07:10:20.195Z,10.50
2023-04-13T07:12:47.256Z,10.50
2023-04-13T07:15:15.226Z,10.50
2023-04-13T07:17:42.329Z,10.40
2023-04-13T07:20:09.832Z,10.40
2023-04-13T07:22:36.849Z,10.40
2023-04-13T07:25:04.288Z,10.40
2023-04-13T07:27:33.324Z,10.40
2023-04-13T07:30:01.413Z,10.40
2023-04-13T07:32:31.487Z,10.50
2023-04-13T07:35:01.763Z,10.50
2023-04-13T07:37:29.918Z,10.50
2023-04-13T07:39:57.183Z,10.60
2023-04-13T07:42:25.449Z,10.60
2023-04-13T07:44:56.212Z,10.70
2023-04-13T07:47:23.297Z,10.70
2023-04-13T07:49:50.371Z,10.60
2023-04-13T07:52:17.594Z,10.50
2023-04-13T07:54:44.747Z,10.50
2023-04-13T07:57:11.788Z,10.50
2023-04-13T07:59:38.848Z,10.60
2023-04-13T08:02:07.237Z,10.60
2023-04-13T08:04:34.645Z,10.60
2023-04-13T08:07:05.799Z,10.60
2023-04-13T08:09:39.424Z,10.70
2023-04-13T08:12:08.566Z,10.60
2023-04-13T08:14:35.812Z,10.60
2023-04-13T08:17:05.371Z,10.60
2023-04-13T08:19:32.677Z,10.70
2023-04-13T08:22:00.178Z,10.70
2023-04-13T08:24:27.649Z,10.70
2023-04-13T08:26:55.300Z,10.60
2023-04-13T08:29:25.396Z,10.60
2023-04-13T08:31:53.332Z,10.60
2023-04-13T08:34:20.661Z,10.60
2023-04-13T08:36:47.957Z,10.60
2023-04-13T08:39:15.087Z,10.60
2023-04-13T08:41:47.323Z,10.60
2023-04-13T08:44:16.008Z,10.60
2023-04-13T08:46:46.645Z,10.60
2023-04-13T08:49:14.554Z,10.60
2023-04-13T08:51:46.065Z,10.70
2023-04-13T08:54:15.000Z,10.80
2023-04-13T08:56:47.155Z,11.00
2023-04-13T08:59:16.312Z,11.10
2023-04-13T09:01:49.349Z,11.30
2023-04-13T09:04:20.510Z,11.50
2023-04-13T09:06:51.873Z,11.60
2023-04-13T09:09:20.884Z,11.70
2023-04-13T09:11:50.795Z,11.90
2023-04-13T09:14:22.332Z,11.90
2023-04-13T09:16:50.873Z,12.00
2023-04-13T09:19:29.059Z,12.00
2023-04-13T09:21:56.250Z,11.90
2023-04-13T09:24:23.904Z,12.00
2023-04-13T09:26:51.336Z,12.00
2023-04-13T09:29:22.102Z,12.00
2023-04-13T09:31:49.187Z,12.00
2023-04-13T09:34:29.545Z,12.00
2023-04-13T09:37:00.225Z,11.90
2023-04-13T09:39:29.268Z,11.90
2023-04-13T09:41:58.333Z,11.90
2023-04-13T09:44:27.784Z,11.90
2023-04-13T09:47:03.884Z,11.80
2023-04-13T09:49:38.806Z,11.90
2023-04-13T09:52:26.454Z,11.90
2023-04-13T09:54:55.925Z,12.00
2023-04-13T09:57:30.943Z,12.00
2023-04-13T10:00:02.009Z,12.10
2023-04-13T10:02:30.145Z,12.00
2023-04-13T10:04:58.507Z,12.00
2023-04-13T10:07:30.196Z,11.90
2023-04-13T10:09:57.223Z,11.80
2023-04-13T10:12:27.017Z,11.80
2023-04-13T10:15:02.331Z,11.80
2023-04-13T10:18:11.126Z,11.70
2023-04-13T10:20:39.586Z,11.70
2023-04-13T10:23:07.900Z,11.60
2023-04-13T10:25:39.159Z,11.60
2023-04-13T10:28:07.204Z,11.60
2023-04-13T10:30:34.292Z,11.50
2023-04-13T10:33:03.963Z,11.40
2023-04-13T10:35:31.527Z,11.40
2023-04-13T10:37:58.794Z,11.30
2023-04-13T10:40:25.990Z,11.20
2023-04-13T10:42:53.519Z,11.10
2023-04-13T10:45:32.346Z,11.10
2023-04-13T10:47:59.533Z,11.20
2023-04-13T10:50:29.827Z,11.20
2023-04-13T10:53:05.535Z,11.10
2023-04-13T10:55:33.918Z,11.10
2023-04-13T10:58:02.361Z,11.10
2023-04-13T11:00:42.239Z,11.00
2023-04-13T11:03:17.933Z,11.00
2023-04-13T11:05:58.079Z,11.00
2023-04-13T11:08:28.286Z,11.00
2023-04-13T11:10:57.364Z,11.00
2023-04-13T11:13:29.862Z,11.00
2023-04-13T11:16:04.608Z,11.00
2023-04-13T11:18:32.658Z,10.90
2023-04-13T11:20:59.786Z,10.90
2023-04-13T11:23:28.551Z,10.90
2023-04-13T11:26:02.320Z,10.90
2023-04-13T11:28:43.974Z,10.90
2023-04-13T11:31:12.183Z,10.90
2023-04-13T11:33:40.709Z,10.90
2023-04-13T11:36:11.211Z,11.00
2023-04-13T11:38:41.246Z,11.00
2023-04-13T11:41:16.525Z,11.10
2023-04-13T11:43:48.608Z,11.10
2023-04-13T11:46:25.686Z,11.10
2023-04-13T11:48:53.620Z,11.10
2023-04-13T11:51:22.377Z,11.00
2023-04-13T11:53:51.578Z,11.00
2023-04-13T11:56:18.676Z,10.90
2023-04-13T11:58:46.010Z,10.80
2023-04-13T12:01:21.970Z,10.70
2023-04-13T12:04:04.848Z,10.60
2023-04-13T12:06:44.520Z,10.60
2023-04-13T12:09:16.628Z,10.60
2023-04-13T12:11:50.155Z,10.70
2023-04-13T12:19:27.634Z,10.90
2023-04-13T12:21:57.323Z,10.80
2023-04-13T12:24:40.429Z,10.80
2023-04-13T12:29:41.238Z,10.70
2023-04-13T12:32:14.908Z,10.70
2023-04-13T12:34:43.976Z,10.80
2023-04-13T12:37:11.823Z,10.80
2023-04-13T12:39:39.454Z,10.90
2023-04-13T12:42:06.781Z,10.90
2023-04-13T12:44:34.697Z,10.90
2023-04-13T12:47:02.463Z,10.80
2023-04-13T12:49:30.299Z,10.70
2023-04-13T12:51:57.361Z,10.70
2023-04-13T12:54:24.962Z,10.70
2023-04-13T12:56:52.298Z,10.70
2023-04-13T12:59:22.355Z,10.70
2023-04-13T13:01:49.978Z,10.70
2023-04-13T13:04:18.365Z,10.70
2023-04-13T13:06:45.933Z,10.70
2023-04-13T13:09:12.890Z,10.70
2023-04-13T13:11:40.093Z,10.80
2023-04-13T13:14:09.827Z,10.80
2023-04-13T13:16:38.203Z,10.80
2023-04-13T13:19:05.663Z,10.90
2023-04-13T13:21:33.502Z,10.90
2023-04-13T13:24:00.533Z,11.00
2023-04-13T13:26:33.091Z,11.00
2023-04-13T13:29:13.282Z,11.10
2023-04-13T13:31:41.743Z,11.40
2023-04-13T13:34:08.847Z,11.40
2023-04-13T13:36:35.909Z,11.30
2023-04-13T13:39:04.570Z,11.40
2023-04-13T13:41:32.056Z,11.50
2023-04-13T13:43:59.086Z,11.50
2023-04-13T13:46:26.375Z,11.50
2023-04-13T13:48:53.401Z,11.40
2023-04-13T13:51:21.231Z,11.40
2023-04-13T13:53:48.283Z,11.40
2023-04-13T13:56:15.352Z,11.20
2023-04-13T13:58:42.353Z,11.10
2023-04-13T14:01:10.365Z,10.90
2023-04-13T14:03:37.819Z,10.80
2023-04-13T14:06:05.264Z,10.80
2023-04-13T14:08:32.444Z,10.80
2023-04-13T14:11:01.100Z,10.90
2023-04-13T14:13:28.142Z,10.90
2023-04-13T14:15:56.286Z,10.80
2023-04-13T14:18:26.781Z,10.70
2023-04-13T14:20:53.982Z,10.70
2023-04-13T14:23:21.262Z,10.60
2023-04-13T14:25:48.296Z,10.50
2023-04-13T14:28:15.364Z,10.40
2023-04-13T14:30:42.468Z,10.30
2023-04-13T14:33:09.565Z,10.20
2023-04-13T14:35:39.187Z,10.20
2023-04-13T14:38:06.873Z,10.10
2023-04-13T14:40:34.050Z,10.10
2023-04-13T14:43:01.023Z,10.10
2023-04-13T14:45:28.087Z,10.10
2023-04-13T14:47:55.248Z,9.90
2023-04-13T14:50:23.040Z,9.80
2023-04-13T14:52:50.484Z,9.80
2023-04-13T14:55:18.317Z,9.70
2023-04-13T14:57:46.055Z,9.60
2023-04-13T15:00:26.635Z,9.60
2023-04-13T15:02:54.268Z,9.60
2023-04-13T15:05:21.819Z,9.60
2023-04-13T15:07:51.116Z,9.60
2023-04-13T15:10:19.377Z,9.50
2023-04-13T15:12:46.745Z,9.50
2023-04-13T15:15:13.991Z,9.50
2023-04-13T15:17:40.972Z,9.50
2023-04-13T15:20:08.361Z,9.50
2023-04-13T15:22:36.329Z,9.50
2023-04-13T15:25:03.908Z,9.50
2023-04-13T15:27:31.102Z,9.50
2023-04-13T15:30:00.216Z,9.50
2023-04-13T15:32:28.425Z,9.50
2023-04-13T15:34:56.773Z,9.50
2023-04-13T15:37:24.342Z,9.50
2023-04-13T15:39:51.466Z,9.50
2023-04-13T15:42:21.537Z,9.50
2023-04-13T15:44:48.706Z,9.50
2023-04-13T15:47:15.738Z,9.60
2023-04-13T15:49:42.768Z,9.70
2023-04-13T15:52:09.836Z,9.70
2023-04-13T15:54:37.213Z,9.70
2023-04-13T15:57:04.363Z,9.80
2023-04-13T15:59:33.476Z,9.80
2023-04-13T16:02:00.906Z,9.80
2023-04-13T16:04:28.567Z,9.90
2023-04-13T16:07:09.193Z,9.90
2023-04-13T16:09:40.423Z,9.90
2023-04-13T16:12:11.240Z,9.90
2023-04-13T16:14:45.401Z,9.90
2023-04-13T16:17:15.215Z,10.00
2023-04-13T16:19:47.468Z,10.00
2023-04-13T16:22:14.659Z,10.10
2023-04-13T16:24:42.119Z,10.00
2023-04-13T16:27:10.407Z,10.00
2023-04-13T16:29:37.825Z,10.00
2023-04-13T16:32:05.020Z,10.00
2023-04-13T16:34:32.132Z,10.00
2023-04-13T16:36:59.128Z,10.00
2023-04-13T16:39:26.570Z,9.90
2023-04-13T16:41:53.656Z,9.90
2023-04-13T16:44:20.993Z,10.00
2023-04-13T16:46:48.127Z,10.00
2023-04-13T16:49:15.209Z,10.00
2023-04-13T16:51:42.353Z,10.00
2023-04-13T16:54:13.958Z,10.00
2023-04-13T16:56:41.770Z,9.90
2023-04-13T16:59:08.815Z,10.00
2023-04-13T17:01:39.157Z,9.90
2023-04-13T17:04:07.310Z,9.90
2023-04-13T17:06:38.761Z,9.90
2023-04-13T17:09:06.745Z,9.80
2023-04-13T17:11:34.087Z,9.80
2023-04-13T17:14:01.541Z,9.80
2023-04-13T17:16:29.892Z,9.70
2023-04-13T17:18:57.767Z,9.70
2023-04-13T17:21:25.784Z,9.60
2023-04-13T17:23:54.552Z,9.60
2023-04-13T17:26:22.359Z,9.60
2023-04-13T17:28:49.500Z,9.50
2023-04-13T17:31:16.759Z,9.50
2023-04-13T17:33:45.551Z,9.50
2023-04-13T17:36:13.023Z,9.50
2023-04-13T17:38:40.563Z,9.50
2023-04-13T17:41:11.837Z,9.50
2023-04-13T17:43:40.440Z,9.50
2023-04-13T17:46:09.001Z,9.50
2023-04-13T17:48:36.327Z,9.50
2023-04-13T17:51:03.739Z,9.40
2023-04-13T17:53:31.275Z,9.40
2023-04-13T17:55:59.040Z,9.40
2023-04-13T17:58:26.310Z,9.40
2023-04-13T18:00:55.070Z,9.40
2023-04-13T18:03:22.877Z,9.40
2023-04-13T18:05:50.035Z,9.40
2023-04-13T18:08:17.550Z,9.40
2023-04-13T18:10:46.709Z,9.40
2023-04-13T18:13:13.900Z,9.40
2023-04-13T18:15:41.362Z,9.40
2023-04-13T18:18:10.681Z,9.40
2023-04-13T18:20:38.021Z,9.40
2023-04-13T18:23:05.746Z,9.40
2023-04-13T18:25:33.275Z,9.40
2023-04-13T18:28:00.687Z,9.40
2023-04-13T18:30:28.080Z,9.30
2023-04-13T18:32:55.814Z,9.30
2023-04-13T18:35:23.496Z,9.30
2023-04-13T18:37:54.264Z,9.20
2023-04-13T18:40:24.040Z,9.20
2023-04-13T18:42:51.585Z,9.20
2023-04-13T18:45:19.660Z,9.20
2023-04-13T18:47:47.851Z,9.20
2023-04-13T18:50:18.228Z,9.20
2023-04-13T18:52:46.192Z,9.20
2023-04-13T18:55:14.223Z,9.20
2023-04-13T18:57:43.309Z,9.20
2023-04-13T19:00:12.273Z,9.30
2023-04-13T19:02:42.912Z,9.30
2023-04-13T19:05:13.362Z,9.30
2023-04-13T19:07:43.307Z,9.30
2023-04-13T19:10:15.081Z,9.30
2023-04-13T19:12:43.220Z,9.30
2023-04-13T19:15:11.720Z,9.30
2023-04-13T19:17:39.335Z,9.30
2023-04-13T19:20:14.170Z,9.30
2023-04-13T19:22:41.645Z,9.30
2023-04-13T19:25:14.731Z,9.30
2023-04-13T19:27:46.822Z,9.30
2023-04-13T19:30:16.838Z,9.30
2023-04-13T19:32:46.722Z,9.30
2023-04-13T19:35:14.677Z,9.30
2023-04-13T19:37:42.907Z,9.30
2023-04-13T19:40:14.308Z,9.30
2023-04-13T19:42:44.194Z,9.30
2023-04-13T19:45:13.866Z,9.20
2023-04-13T19:47:45.966Z,9.20
2023-04-13T19:50:15.755Z,9.20
2023-04-13T19:52:44.137Z,9.20
2023-04-13T19:55:12.860Z,9.20
2023-04-13T19:57:43.594Z,9.20
2023-04-13T20:00:20.982Z,9.10
2023-04-13T20:02:51.091Z,9.10
2023-04-13T20:05:20.129Z,9.10
2023-04-13T20:07:48.184Z,9.00
2023-04-13T20:10:16.084Z,8.90
2023-04-13T20:12:43.897Z,8.90
2023-04-13T20:15:11.988Z,9.00
2023-04-13T20:17:39.177Z,9.00
2023-04-13T20:20:07.603Z,9.00
2023-04-13T20:22:35.053Z,9.00
2023-04-13T20:25:02.301Z,8.90
2023-04-13T20:27:30.428Z,8.90
2023-04-13T20:29:58.285Z,8.90
2023-04-13T20:32:25.818Z,8.90
2023-04-13T20:34:56.269Z,8.90
2023-04-13T20:37:23.669Z,8.90
2023-04-13T20:39:51.111Z,8.90
2023-04-13T20:42:19.510Z,8.90
2023-04-13T20:44:47.543Z,8.80
2023-04-13T20:47:15.192Z,8.80
2023-04-13T20:49:47.190Z,8.80
2023-04-13T20:52:14.417Z,8.70
2023-04-13T20:54:42.546Z,8.70
2023-04-13T20:57:09.752Z,8.70
2023-04-13T20:59:37.539Z,8.70
2023-04-13T21:02:05.614Z,8.70
2023-04-13T21:04:32.939Z,8.70
2023-04-13T21:07:02.526Z,8.70
2023-04-13T21:09:30.799Z,8.70
2023-04-13T21:11:58.124Z,8.70
2023-04-13T21:14:25.949Z,8.70
2023-04-13T21:16:53.434Z,8.70
2023-04-13T21:19:20.816Z,8.70
2023-04-13T21:21:47.899Z,8.70
2023-04-13T21:24:15.549Z,8.70
2023-04-13T21:26:42.548Z,8.80
2023-04-13T21:29:10.288Z,8.80
2023-04-13T21:31:37.321Z,8.80
2023-04-13T21:34:04.345Z,8.80
2023-04-13T21:39:03.322Z,8.80
2023-04-13T21:41:30.546Z,8.80
2023-04-13T21:43:57.588Z,8.80
2023-04-13T21:46:25.563Z,8.80
2023-04-13T21:48:52.752Z,8.80
2023-04-13T21:51:19.708Z,8.70
2023-04-13T21:53:47.451Z,8.60
2023-04-13T21:56:14.478Z,8.60
2023-04-13T21:58:43.745Z,8.60
2023-04-13T22:01:12.954Z,8.50
2023-04-13T22:03:42.264Z,8.50
2023-04-13T22:06:11.140Z,8.50
2023-04-13T22:08:39.139Z,8.40
2023-04-13T22:11:06.797Z,8.40
2023-04-13T22:13:34.115Z,8.40
2023-04-13T22:16:02.315Z,8.40
2023-04-13T22:18:29.424Z,8.40
2023-04-13T22:20:58.891Z,8.40
2023-04-13T22:23:26.776Z,8.40
2023-04-13T22:26:03.505Z,8.40
2023-04-13T22:28:31.549Z,8.40
2023-04-13T22:31:05.174Z,8.40
2023-04-13T22:33:36.388Z,8.40
2023-04-13T22:36:04.520Z,8.40
2023-04-13T22:38:31.571Z,8.30
2023-04-13T22:40:58.745Z,8.30
2023-04-13T22:43:26.274Z,8.30
2023-04-13T22:46:02.818Z,8.30
2023-04-13T22:48:30.541Z,8.30
2023-04-13T22:51:01.070Z,8.30
2023-04-13T22:53:28.352Z,8.30
2023-04-13T22:55:55.610Z,8.30
2023-04-13T22:58:22.585Z,8.30
2023-04-13T23:00:49.638Z,8.30
2023-04-13T23:03:17.055Z,8.30
2023-04-13T23:05:44.338Z,8.30
2023-04-13T23:08:11.704Z,8.20
2023-04-13T23:10:38.688Z,8.20
2023-04-13T23:13:05.693Z,8.20
2023-04-13T23:15:32.953Z,8.20
2023-04-13T23:18:02.944Z,8.20
2023-04-13T23:20:30.233Z,8.20
2023-04-13T23:22:57.401Z,8.20
2023-04-13T23:25:24.792Z,8.20
2023-04-13T23:27:51.860Z,8.10
2023-04-13T23:30:18.952Z,8.10
2023-04-13T23:32:45.989Z,8.10
2023-04-13T23:35:13.092Z,8.00
2023-04-13T23:37:42.328Z,8.00
2023-04-13T23:40:10.180Z,7.90
2023-04-13T23:42:37.313Z,7.90
2023-04-13T23:45:04.823Z,7.90
2023-04-13T23:47:32.177Z,7.90
2023-04-13T23:49:59.258Z,7.90
2023-04-13T23:52:26.372Z,7.90
2023-04-13T23:54:53.360Z,7.80
2023-04-13T23:57:20.591Z,7.80
2023-04-13T23:59:47.587Z,7.80
